Time;durP1;ratioP1;P1;durP2;ratioP2;P2;SDS_P1;SDS_P2;PMS_P1;PMS_P2;Temp;Humidity;BMP_temperature;BMP_pressure;BME280_temperature;BME280_humidity;BME280_pressure;Samples;Min_cycle;Max_cycle;Signal;HPM_P1;HPM_P2
2022/03/11 00:00:05;;;;;;;26.73;13.70;;;2.10;49.90;;;;;;5013641;28;20041;-60
2022/03/11 00:02:30;;;;;;;22.27;11.55;;;2.20;49.90;;;;;;5013863;28;20415;-55
2022/03/11 00:04:57;;;;;;;19.17;10.13;;;2.30;49.20;;;;;;5013586;28;20030;-58
2022/03/11 00:07:23;;;;;;;18.15;9.48;;;2.40;49.00;;;;;;5013488;28;20026;-59
2022/03/11 00:09:50;;;;;;;14.00;8.15;;;2.50;48.70;;;;;;5013656;28;20024;-58
2022/03/11 00:12:16;;;;;;;14.18;7.35;;;2.40;48.70;;;;;;5013270;28;20045;-56
2022/03/11 00:14:41;;;;;;;10.85;6.25;;;2.50;49.30;;;;;;5013497;28;20022;-55
2022/03/11 00:17:07;;;;;;;13.77;7.53;;;2.50;48.70;;;;;;5013442;28;20022;-57
2022/03/11 00:19:33;;;;;;;14.98;7.90;;;2.50;48.40;;;;;;5013634;28;20030;-59
2022/03/11 00:21:59;;;;;;;30.15;16.92;;;2.50;49.90;;;;;;5013475;28;20096;-60
2022/03/11 00:24:25;;;;;;;29.75;16.23;;;2.40;49.80;;;;;;5013279;28;20029;-58
2022/03/11 00:26:52;;;;;;;31.58;17.50;;;2.20;49.40;;;;;;5013395;28;20025;-59
2022/03/11 00:29:18;;;;;;;54.95;26.88;;;2.10;50.40;;;;;;5013680;28;20033;-57
2022/03/11 00:31:45;;;;;;;67.30;32.72;;;1.90;52.40;;;;;;5013229;28;20053;-56
2022/03/11 00:34:11;;;;;;;55.20;27.98;;;1.60;54.00;;;;;;5013290;28;20022;-58
2022/03/11 00:36:37;;;;;;;50.38;27.55;;;1.30;55.30;;;;;;5013301;28;20022;-61
2022/03/11 00:39:03;;;;;;;42.10;21.70;;;1.10;56.70;;;;;;5013311;28;20022;-57
2022/03/11 00:41:29;;;;;;;32.92;17.80;;;0.90;56.30;;;;;;5013381;28;20383;-60
2022/03/11 00:43:55;;;;;;;32.80;18.45;;;0.80;58.30;;;;;;5013308;28;20164;-59
2022/03/11 00:46:21;;;;;;;40.95;19.73;;;0.70;57.80;;;;;;5013102;28;20062;-58
2022/03/11 00:48:47;;;;;;;38.97;20.40;;;0.80;58.20;;;;;;5013272;28;20096;-60
2022/03/11 00:51:12;;;;;;;47.53;22.15;;;0.70;58.40;;;;;;5013351;28;20033;-60
2022/03/11 00:53:38;;;;;;;49.22;23.00;;;0.60;59.50;;;;;;5013062;28;20033;-57
2022/03/11 00:56:04;;;;;;;33.88;18.40;;;0.50;59.70;;;;;;5017032;28;20101;-59
2022/03/11 00:58:29;;;;;;;36.33;19.23;;;0.40;59.40;;;;;;5016898;28;20026;-61
2022/03/11 01:00:55;;;;;;;40.97;20.80;;;0.50;60.20;;;;;;5016867;28;20357;-56
2022/03/11 01:03:21;;;;;;;38.65;19.00;;;0.40;60.90;;;;;;5016916;28;20041;-61
2022/03/11 01:05:47;;;;;;;33.15;17.02;;;0.30;60.60;;;;;;5017082;28;20102;-58
2022/03/11 01:08:12;;;;;;;37.58;18.00;;;0.30;60.30;;;;;;5016548;28;20461;-56
2022/03/11 01:10:38;;;;;;;38.85;17.77;;;0.40;59.90;;;;;;5016844;28;20028;-60
2022/03/11 01:13:06;;;;;;;43.70;20.65;;;0.40;60.70;;;;;;5016404;28;20046;-58
2022/03/11 01:15:32;;;;;;;37.78;19.13;;;0.30;60.30;;;;;;5016657;28;20097;-57
2022/03/11 01:17:58;;;;;;;41.35;19.02;;;0.30;60.70;;;;;;5016701;28;20076;-55
2022/03/11 01:20:24;;;;;;;34.10;16.65;;;0.20;61.60;;;;;;5016581;28;20021;-59
2022/03/11 01:22:49;;;;;;;35.42;16.55;;;0.00;62.20;;;;;;5016523;28;20468;-58
2022/03/11 01:25:15;;;;;;;24.02;12.93;;;0.00;62.70;;;;;;5016327;28;20511;-60
2022/03/11 01:27:41;;;;;;;32.88;16.80;;;0.00;61.60;;;;;;5016475;28;20468;-57
2022/03/11 01:30:09;;;;;;;35.65;17.63;;;0.00;62.20;;;;;;5016388;28;20022;-56
2022/03/11 01:32:36;;;;;;;32.15;16.55;;;0.00;62.80;;;;;;5016395;28;20045;-60
2022/03/11 01:35:02;;;;;;;30.65;15.35;;;0.20;61.70;;;;;;5016514;28;20049;-58
2022/03/11 01:37:27;;;;;;;56.90;27.75;;;0.50;59.90;;;;;;5016180;28;20468;-58
2022/03/11 01:39:53;;;;;;;58.20;25.00;;;0.70;59.90;;;;;;5016138;28;20026;-58
2022/03/11 01:42:19;;;;;;;42.92;19.90;;;0.50;61.60;;;;;;5016300;28;20029;-60
2022/03/11 01:44:44;;;;;;;58.65;25.45;;;0.40;61.40;;;;;;5016204;28;20046;-60
2022/03/11 01:47:10;;;;;;;59.40;26.33;;;0.50;60.00;;;;;;5016108;28;20384;-58
2022/03/11 01:49:36;;;;;;;58.78;26.02;;;0.50;61.40;;;;;;5015978;28;20026;-61
2022/03/11 01:52:01;;;;;;;65.55;26.80;;;0.30;62.50;;;;;;5015980;28;20026;-57
2022/03/11 01:54:28;;;;;;;54.47;23.42;;;0.20;62.80;;;;;;5015839;28;20022;-60
2022/03/11 01:56:53;;;;;;;52.03;23.60;;;0.20;62.50;;;;;;5015720;28;20029;-56
2022/03/11 01:59:20;;;;;;;46.35;22.85;;;0.30;62.50;;;;;;5016071;28;20022;-57
2022/03/11 02:01:45;;;;;;;41.25;21.65;;;0.00;64.00;;;;;;5015753;28;20037;-54
2022/03/11 02:04:11;;;;;;;43.17;19.50;;;-0.10;64.40;;;;;;5015685;28;20093;-55
2022/03/11 02:06:37;;;;;;;42.78;20.45;;;-0.10;63.90;;;;;;5015393;28;20442;-60
2022/03/11 02:09:03;;;;;;;43.47;22.42;;;-0.10;64.40;;;;;;5015707;28;20026;-53
2022/03/11 02:11:29;;;;;;;42.47;21.27;;;-0.40;66.00;;;;;;5015286;28;20056;-55
2022/03/11 02:14:00;;;;;;;42.90;20.57;;;-0.50;66.60;;;;;;5015706;28;20468;-61
2022/03/11 02:16:30;;;;;;;34.55;17.23;;;-0.60;66.00;;;;;;5015478;28;20468;-58
2022/03/11 02:18:57;;;;;;;35.50;17.35;;;-0.30;65.30;;;;;;5015371;28;20061;-57
2022/03/11 02:21:25;;;;;;;30.38;17.20;;;0.00;64.20;;;;;;5015193;28;20460;-55
2022/03/11 02:23:53;;;;;;;53.10;23.60;;;0.20;63.50;;;;;;5015315;28;20038;-61
2022/03/11 02:26:21;;;;;;;46.03;20.45;;;0.20;63.70;;;;;;5015261;28;20105;-54
2022/03/11 02:28:49;;;;;;;46.28;21.17;;;0.10;62.40;;;;;;5015264;28;20018;-55
2022/03/11 02:31:15;;;;;;;42.78;21.02;;;0.00;62.70;;;;;;5015138;28;20460;-58
2022/03/11 02:33:41;;;;;;;44.60;20.38;;;-0.10;63.90;;;;;;5015005;28;20100;-59
2022/03/11 02:36:07;;;;;;;46.30;21.77;;;-0.20;65.40;;;;;;5015076;28;20096;-60
2022/03/11 02:38:33;;;;;;;41.90;19.58;;;-0.30;66.30;;;;;;5015035;28;20084;-58
2022/03/11 02:40:59;;;;;;;57.80;27.33;;;-0.30;65.60;;;;;;5015200;28;20053;-56
2022/03/11 02:43:25;;;;;;;40.92;20.70;;;-0.40;66.20;;;;;;5015293;28;20452;-59
2022/03/11 02:45:51;;;;;;;37.78;19.50;;;-0.40;67.00;;;;;;5014902;28;20105;-60
2022/03/11 02:48:17;;;;;;;42.25;20.83;;;-0.50;67.80;;;;;;5014803;28;20483;-57
2022/03/11 02:50:44;;;;;;;38.13;19.33;;;-0.60;68.70;;;;;;5014661;28;20060;-60
2022/03/11 02:53:09;;;;;;;31.65;15.88;;;-0.70;69.20;;;;;;5014700;28;20026;-55
2022/03/11 02:55:35;;;;;;;38.85;20.17;;;-0.50;68.00;;;;;;5014712;28;20037;-57
2022/03/11 02:58:01;;;;;;;47.75;21.80;;;-0.40;67.40;;;;;;5014883;28;20026;-50
2022/03/11 03:00:27;;;;;;;35.83;18.60;;;-0.30;67.20;;;;;;5014642;28;20491;-57
2022/03/11 03:02:53;;;;;;;40.35;20.63;;;-0.30;66.90;;;;;;5014678;28;20041;-60
2022/03/11 03:05:18;;;;;;;34.42;18.08;;;-0.40;67.30;;;;;;5014212;28;20540;-59
2022/03/11 03:07:44;;;;;;;36.87;19.00;;;-0.50;67.90;;;;;;5014914;28;20028;-58
2022/03/11 03:10:13;;;;;;;46.17;23.48;;;-0.60;68.60;;;;;;5014782;28;20380;-60
2022/03/11 03:12:39;;;;;;;42.93;21.63;;;-0.70;69.40;;;;;;5014169;28;20408;-55
2022/03/11 03:15:07;;;;;;;37.60;18.80;;;-0.70;70.40;;;;;;5014516;28;20018;-59
2022/03/11 03:17:33;;;;;;;34.03;18.50;;;-0.70;70.50;;;;;;5013666;28;20534;-50
2022/03/11 03:19:58;;;;;;;32.20;17.05;;;-0.70;70.90;;;;;;5014066;28;20022;-55
2022/03/11 03:22:24;;;;;;;28.42;16.17;;;-0.60;71.40;;;;;;5014303;28;20373;-57
2022/03/11 03:24:50;;;;;;;38.28;19.30;;;-0.50;69.50;;;;;;5014233;28;20072;-61
2022/03/11 03:27:16;;;;;;;52.47;25.70;;;-0.30;68.20;;;;;;5014408;28;20018;-55
2022/03/11 03:29:42;;;;;;;43.63;23.55;;;-0.40;69.30;;;;;;5014172;28;20018;-58
2022/03/11 03:32:08;;;;;;;33.33;18.20;;;-0.60;71.60;;;;;;5013871;28;20068;-54
2022/03/11 03:34:37;;;;;;;33.23;18.10;;;-0.90;72.50;;;;;;5014050;28;20022;-58
2022/03/11 03:37:07;;;;;;;30.60;14.77;;;-1.10;74.40;;;;;;5013981;28;20032;-57
2022/03/11 03:39:33;;;;;;;24.57;14.13;;;-1.20;75.50;;;;;;5014306;28;20379;-55
2022/03/11 03:41:59;;;;;;;23.20;13.38;;;-1.20;73.70;;;;;;5013787;28;20102;-55
2022/03/11 03:44:25;;;;;;;41.53;20.40;;;-1.10;73.10;;;;;;5014101;28;20030;-53
2022/03/11 03:46:51;;;;;;;44.07;21.50;;;-1.10;74.20;;;;;;5013995;28;20097;-57
2022/03/11 03:49:16;;;;;;;36.83;18.87;;;-1.20;76.10;;;;;;5013862;28;20399;-52
2022/03/11 03:51:42;;;;;;;30.20;15.93;;;-1.10;76.10;;;;;;5013690;28;20472;-58
2022/03/11 03:54:10;;;;;;;30.60;15.73;;;-0.90;74.90;;;;;;5014063;28;20427;-61
2022/03/11 03:56:36;;;;;;;32.20;15.20;;;-0.80;73.50;;;;;;5013746;28;20464;-60
2022/03/11 03:59:06;;;;;;;35.33;17.70;;;-0.60;72.40;;;;;;5013692;28;20018;-55
2022/03/11 04:01:43;;;;;;;43.30;22.13;;;-0.60;71.40;;;;;;5013435;28;20026;-57
2022/03/11 04:04:13;;;;;;;45.92;21.45;;;-0.70;73.10;;;;;;5013604;28;20018;-58
2022/03/11 04:06:42;;;;;;;67.73;34.57;;;-1.00;74.90;;;;;;5013888;28;20026;-55
2022/03/11 04:09:09;;;;;;;52.13;24.43;;;-1.10;76.30;;;;;;5013632;28;20029;-57
2022/03/11 04:11:35;;;;;;;40.70;20.60;;;-1.10;76.30;;;;;;5013261;28;20064;-58
2022/03/11 04:14:01;;;;;;;52.10;22.40;;;-1.10;76.20;;;;;;5013540;28;20022;-57
2022/03/11 04:16:27;;;;;;;39.50;19.93;;;-1.00;75.60;;;;;;5013327;28;20022;-58
2022/03/11 04:18:53;;;;;;;47.23;22.50;;;-0.80;73.60;;;;;;5013399;28;20511;-59
2022/03/11 04:21:20;;;;;;;55.40;26.50;;;-0.80;71.40;;;;;;5013475;28;20057;-55
2022/03/11 04:23:49;;;;;;;52.20;26.93;;;-0.60;69.50;;;;;;5013459;28;20060;-55
2022/03/11 04:26:15;;;;;;;45.10;21.73;;;-0.60;68.60;;;;;;5013387;28;20032;-59
2022/03/11 04:28:40;;;;;;;48.10;22.30;;;-0.80;68.50;;;;;;5015281;28;20022;-53
2022/03/11 04:31:07;;;;;;;41.70;19.90;;;-0.80;69.10;;;;;;5017699;28;20022;-59
2022/03/11 04:33:34;;;;;;;43.07;20.80;;;-0.80;70.20;;;;;;5017260;28;20032;-60
2022/03/11 04:36:00;;;;;;;47.97;21.83;;;-0.80;70.50;;;;;;5017564;28;20369;-60
2022/03/11 04:38:26;;;;;;;33.97;16.17;;;-0.90;70.20;;;;;;5017616;28;20461;-58
2022/03/11 04:40:52;;;;;;;49.23;25.93;;;-0.80;69.30;;;;;;5017293;28;20057;-60
2022/03/11 04:43:19;;;;;;;44.93;22.73;;;-0.90;70.80;;;;;;5017395;28;20064;-58
2022/03/11 04:45:45;;;;;;;49.23;25.63;;;-1.00;71.90;;;;;;5017313;28;20432;-61
2022/03/11 04:48:10;;;;;;;40.80;19.97;;;-1.10;72.20;;;;;;5017459;28;20045;-56
2022/03/11 04:50:36;;;;;;;56.17;26.43;;;-1.20;72.40;;;;;;5017017;28;20041;-57
2022/03/11 04:53:03;;;;;;;42.47;21.57;;;-1.20;73.70;;;;;;5016991;28;20053;-53
2022/03/11 04:55:29;;;;;;;58.60;27.83;;;-1.20;73.90;;;;;;5017048;28;20030;-60
2022/03/11 04:57:54;;;;;;;78.57;36.33;;;-1.10;73.10;;;;;;5016907;28;20022;-58
2022/03/11 05:00:21;;;;;;;75.43;35.90;;;-1.10;71.70;;;;;;5017013;28;20377;-52
2022/03/11 05:02:46;;;;;;;64.90;30.13;;;-1.20;71.30;;;;;;5017159;28;20033;-57
2022/03/11 05:05:13;;;;;;;80.23;35.10;;;-1.20;72.00;;;;;;5016712;28;20362;-61
2022/03/11 05:07:40;;;;;;;63.37;27.83;;;-1.10;71.00;;;;;;5016785;28;20464;-54
2022/03/11 05:10:08;;;;;;;69.80;31.37;;;-1.10;70.10;;;;;;5017064;28;20365;-54
2022/03/11 05:12:35;;;;;;;67.20;30.87;;;-1.00;70.70;;;;;;5016316;28;20512;-59
2022/03/11 05:15:02;;;;;;;58.30;27.13;;;-1.10;72.20;;;;;;5016585;28;20105;-57
2022/03/11 05:17:28;;;;;;;60.07;26.77;;;-1.10;72.50;;;;;;5016683;28;20033;-59
2022/03/11 05:19:54;;;;;;;45.07;21.70;;;-1.10;72.30;;;;;;5016517;28;20018;-54
2022/03/11 05:22:20;;;;;;;47.00;21.57;;;-1.10;72.10;;;;;;5016650;28;20018;-56
2022/03/11 05:24:46;;;;;;;43.43;20.93;;;-1.00;72.30;;;;;;5016557;28;20018;-58
2022/03/11 05:27:12;;;;;;;41.57;20.53;;;-1.00;71.90;;;;;;5016475;28;20028;-59
2022/03/11 05:29:39;;;;;;;39.53;20.93;;;-0.90;69.90;;;;;;5016473;28;20498;-58
2022/03/11 05:32:06;;;;;;;46.27;23.67;;;-0.90;69.50;;;;;;5016611;28;20092;-57
2022/03/11 05:34:32;;;;;;;64.83;30.83;;;-0.90;69.80;;;;;;5016357;28;20014;-60
2022/03/11 05:36:57;;;;;;;55.30;25.33;;;-0.80;69.70;;;;;;5016174;28;20107;-61
2022/03/11 05:39:23;;;;;;;56.13;27.00;;;-0.90;71.00;;;;;;5015822;28;20030;-60
2022/03/11 05:41:49;;;;;;;54.53;27.63;;;-0.90;71.20;;;;;;5015880;28;20030;-53
2022/03/11 05:44:18;;;;;;;40.23;21.00;;;-0.90;71.00;;;;;;5015869;28;20018;-60
2022/03/11 05:46:45;;;;;;;74.17;36.00;;;-0.90;71.60;;;;;;5016094;28;20022;-56
2022/03/11 05:49:12;;;;;;;106.97;49.67;;;-0.80;69.10;;;;;;5016135;28;20427;-57
2022/03/11 05:51:37;;;;;;;111.13;53.45;;;-0.90;69.30;;;;;;5015791;28;20457;-62
2022/03/11 05:54:05;;;;;;;129.73;57.50;;;-0.80;68.50;;;;;;5015930;28;20022;-61
2022/03/11 05:56:31;;;;;;;100.10;48.40;;;-0.80;66.80;;;;;;5016134;28;20030;-57
2022/03/11 05:58:56;;;;;;;89.87;44.30;;;-1.00;67.80;;;;;;5015050;28;20033;-58
2022/03/11 06:01:22;;;;;;;113.47;48.47;;;-0.90;67.20;;;;;;5015512;28;20022;-59
2022/03/11 06:03:48;;;;;;;169.00;68.47;;;-0.90;67.40;;;;;;5014805;28;20022;-56
2022/03/11 06:06:15;;;;;;;130.93;53.43;;;-0.70;66.50;;;;;;5014105;28;20048;-60
2022/03/11 06:08:41;;;;;;;138.97;58.67;;;-0.70;66.20;;;;;;5015367;28;20025;-56
2022/03/11 06:11:07;;;;;;;172.53;66.53;;;-0.50;65.50;;;;;;5015180;28;20074;-60
2022/03/11 06:13:33;;;;;;;130.83;56.47;;;-0.40;64.80;;;;;;5014010;28;20454;-60
2022/03/11 06:15:58;;;;;;;116.03;49.17;;;-0.60;64.90;;;;;;5015344;28;20026;-58
2022/03/11 06:18:24;;;;;;;119.70;53.23;;;-0.70;65.40;;;;;;5015381;28;20022;-58
2022/03/11 06:20:50;;;;;;;82.40;38.23;;;-0.50;64.90;;;;;;5015151;28;20014;-57
2022/03/11 06:23:16;;;;;;;69.80;30.73;;;-0.40;63.60;;;;;;5016348;28;20036;-60
2022/03/11 06:25:42;;;;;;;44.70;21.10;;;-0.40;63.40;;;;;;5024334;28;20112;-59
2022/03/11 06:28:08;;;;;;;41.40;20.67;;;-0.30;62.80;;;;;;5025302;28;20491;-57
2022/03/11 06:30:34;;;;;;;38.70;19.80;;;-0.20;62.30;;;;;;5023683;28;20028;-56
2022/03/11 06:33:00;;;;;;;39.23;19.57;;;-0.10;61.90;;;;;;5024068;28;20471;-59
2022/03/11 06:35:26;;;;;;;46.47;22.97;;;0.10;61.20;;;;;;5025482;28;20184;-57
2022/03/11 06:37:52;;;;;;;39.87;20.47;;;0.20;59.90;;;;;;5026029;28;20029;-55
2022/03/11 06:40:19;;;;;;;38.03;20.45;;;1.80;59.20;;;;;;5022789;28;20021;-59
2022/03/11 06:42:47;;;;;;;32.65;17.88;;;5.10;53.20;;;;;;5019800;28;20109;-62
2022/03/11 06:45:15;;;;;;;35.80;19.55;;;7.60;48.30;;;;;;5015005;28;20415;-60
2022/03/11 06:47:41;;;;;;;38.75;21.60;;;9.20;41.70;;;;;;5015360;28;20029;-59
2022/03/11 06:50:08;;;;;;;33.72;19.10;;;9.90;38.10;;;;;;5020406;28;20033;-61
2022/03/11 06:52:35;;;;;;;39.97;23.63;;;10.80;38.30;;;;;;5012016;28;20116;-59
2022/03/11 06:55:02;;;;;;;41.90;23.65;;;11.50;38.10;;;;;;5014593;28;20026;-58
2022/03/11 06:57:28;;;;;;;47.78;27.45;;;13.10;36.50;;;;;;5014107;28;20026;-59
2022/03/11 06:59:54;;;;;;;38.53;23.02;;;14.00;33.20;;;;;;5013781;28;20041;-56
2022/03/11 07:02:20;;;;;;;31.50;15.38;;;14.40;34.20;;;;;;5013440;28;20477;-57
2022/03/11 07:04:45;;;;;;;24.30;14.05;;;14.90;30.50;;;;;;5014264;28;20026;-59
2022/03/11 07:07:11;;;;;;;20.70;12.63;;;15.20;31.90;;;;;;5013701;28;20022;-59
2022/03/11 07:09:37;;;;;;;20.67;13.43;;;16.20;30.70;;;;;;5014072;28;20022;-59
2022/03/11 07:12:03;;;;;;;23.30;14.50;;;17.10;30.00;;;;;;5011779;28;20516;-58
2022/03/11 07:14:33;;;;;;;23.50;14.23;;;17.80;29.50;;;;;;5012671;28;20018;-55
2022/03/11 07:16:59;;;;;;;19.63;12.27;;;17.50;29.30;;;;;;5012900;28;20116;-59
2022/03/11 07:19:27;;;;;;;17.70;11.05;;;17.80;29.00;;;;;;5013924;28;20105;-60
2022/03/11 07:21:53;;;;;;;15.85;11.60;;;18.30;28.30;;;;;;5006030;28;20100;-60
2022/03/11 07:24:19;;;;;;;15.05;11.15;;;18.50;28.10;;;;;;5008803;28;20028;-59
2022/03/11 07:26:45;;;;;;;16.17;11.00;;;18.70;27.60;;;;;;5013622;28;20022;-56
2022/03/11 07:29:10;;;;;;;13.75;10.38;;;17.80;27.40;;;;;;5013316;28;20037;-58
2022/03/11 07:31:36;;;;;;;13.00;9.48;;;18.00;27.10;;;;;;5010241;28;20040;-57
2022/03/11 07:34:02;;;;;;;13.30;9.30;;;18.60;27.30;;;;;;5008014;28;20126;-56
2022/03/11 07:36:28;;;;;;;11.27;8.52;;;18.00;27.60;;;;;;5008023;28;20021;-57
2022/03/11 07:38:54;;;;;;;12.70;9.30;;;18.00;27.60;;;;;;5009383;28;20362;-57
2022/03/11 07:41:20;;;;;;;12.32;8.73;;;17.90;27.20;;;;;;5017075;28;20042;-60
2022/03/11 07:43:46;;;;;;;11.30;8.57;;;17.40;27.80;;;;;;5015939;28;20389;-57
2022/03/11 07:46:14;;;;;;;12.77;8.88;;;18.10;27.10;;;;;;5025894;28;20057;-55
2022/03/11 07:48:40;;;;;;;12.15;8.05;;;18.80;26.30;;;;;;5019035;28;20083;-59
2022/03/11 07:51:07;;;;;;;12.40;8.70;;;19.00;26.70;;;;;;5013420;28;20434;-64
2022/03/11 07:53:36;;;;;;;14.00;9.30;;;19.50;26.20;;;;;;5013028;28;20724;-68
2022/03/11 07:56:07;;;;;;;15.07;11.48;;;19.20;26.40;;;;;;5015460;28;20060;-67
2022/03/11 07:58:33;;;;;;;15.00;9.70;;;18.00;27.30;;;;;;5009517;28;20058;-66
2022/03/11 08:00:59;;;;;;;11.85;8.90;;;18.80;27.20;;;;;;5023735;28;20026;-66
2022/03/11 08:03:25;;;;;;;15.70;8.57;;;19.70;26.30;;;;;;5013613;28;20037;-69
2022/03/11 08:05:55;;;;;;;12.02;8.73;;;19.30;25.90;;;;;;5017827;28;20022;-64
2022/03/11 08:08:21;;;;;;;10.52;7.75;;;18.40;26.50;;;;;;5008291;28;20480;-67
2022/03/11 08:10:52;;;;;;;10.93;7.00;;;19.00;26.40;;;;;;5011170;28;20042;-65
2022/03/11 08:13:21;;;;;;;10.55;7.75;;;19.30;26.60;;;;;;5013205;28;20052;-67
2022/03/11 08:15:48;;;;;;;12.02;8.30;;;18.50;27.00;;;;;;5012469;28;20569;-68
2022/03/11 08:18:15;;;;;;;14.48;9.70;;;18.60;26.20;;;;;;5022679;28;20055;-66
2022/03/11 08:20:41;;;;;;;19.65;11.35;;;19.00;26.50;;;;;;5022103;28;20080;-71
2022/03/11 08:23:08;;;;;;;13.38;9.65;;;19.40;27.70;;;;;;5012909;28;20073;-68
2022/03/11 08:25:40;;;;;;;12.63;9.65;;;20.10;26.80;;;;;;5019368;28;20061;-68
2022/03/11 08:28:10;;;;;;;12.93;9.32;;;20.30;26.30;;;;;;5008055;28;20026;-64
2022/03/11 08:30:42;;;;;;;14.88;10.25;;;20.70;26.50;;;;;;5010668;28;20073;-70
2022/03/11 08:33:10;;;;;;;17.55;10.18;;;21.10;26.60;;;;;;5010885;28;20052;-68
2022/03/11 08:35:37;;;;;;;19.17;10.95;;;20.60;25.70;;;;;;5006867;28;20451;-68
2022/03/11 08:38:06;;;;;;;15.73;10.93;;;20.10;25.60;;;;;;5007583;28;20030;-71
2022/03/11 08:40:32;;;;;;;14.38;9.90;;;18.80;26.40;;;;;;5011046;28;20025;-70
2022/03/11 08:42:58;;;;;;;16.30;12.65;;;19.10;26.30;;;;;;5016006;28;20648;-72
2022/03/11 08:45:24;;;;;;;15.57;10.48;;;19.90;26.20;;;;;;5011046;28;20035;-69
2022/03/11 08:47:51;;;;;;;14.15;10.02;;;20.30;25.50;;;;;;5005739;28;20025;-68
2022/03/11 08:50:17;;;;;;;14.15;8.88;;;20.50;25.80;;;;;;5007789;28;20028;-69
2022/03/11 08:52:44;;;;;;;16.95;11.20;;;20.30;28.40;;;;;;5005039;28;20108;-69
2022/03/11 08:55:11;;;;;;;13.60;8.90;;;19.60;27.50;;;;;;5006804;28;20029;-69
2022/03/11 08:57:37;;;;;;;16.05;10.18;;;19.20;27.10;;;;;;5016103;28;20034;-68
2022/03/11 09:00:12;;;;;;;12.93;8.88;;;18.40;26.70;;;;;;5027093;28;20029;-67
2022/03/11 09:02:38;;;;;;;13.05;8.65;;;17.60;27.20;;;;;;5014820;28;20029;-72
2022/03/11 09:05:06;;;;;;;9.27;7.50;;;17.30;26.60;;;;;;5011880;28;20465;-68
2022/03/11 09:07:32;;;;;;;14.60;8.88;;;16.90;27.60;;;;;;5008074;28;20054;-71
2022/03/11 09:09:58;;;;;;;12.93;8.60;;;16.30;27.60;;;;;;5012221;28;20041;-64
2022/03/11 09:12:24;;;;;;;12.55;8.40;;;15.90;27.50;;;;;;5009434;28;20121;-68
2022/03/11 09:14:50;;;;;;;10.15;8.20;;;15.20;27.70;;;;;;5030222;28;20104;-66
2022/03/11 09:17:16;;;;;;;9.80;7.65;;;14.40;31.20;;;;;;5026857;28;20033;-67
2022/03/11 09:19:43;;;;;;;10.60;6.50;;;13.20;32.20;;;;;;5013180;28;20365;-70
2022/03/11 09:22:11;;;;;;;8.73;6.72;;;12.80;34.30;;;;;;5011383;28;20468;-70
2022/03/11 09:24:40;;;;;;;8.85;6.07;;;12.70;31.70;;;;;;5010777;28;20022;-71
2022/03/11 09:27:07;;;;;;;7.75;6.20;;;13.00;30.30;;;;;;5012150;28;20095;-69
2022/03/11 09:29:32;;;;;;;11.25;8.13;;;12.80;30.00;;;;;;5015137;28;20108;-67
2022/03/11 09:32:01;;;;;;;10.02;7.55;;;12.30;29.80;;;;;;5018772;28;20606;-70
2022/03/11 09:34:27;;;;;;;21.17;14.00;;;11.80;30.60;;;;;;5020352;28;20450;-67
2022/03/11 09:36:53;;;;;;;16.13;10.00;;;11.60;34.50;;;;;;5024150;28;20112;-70
2022/03/11 09:39:23;;;;;;;10.50;6.72;;;11.70;32.60;;;;;;5017469;28;20102;-67
2022/03/11 09:41:50;;;;;;;10.75;6.80;;;11.70;30.90;;;;;;5020357;28;20475;-68
2022/03/11 09:44:17;;;;;;;11.55;6.95;;;11.10;30.00;;;;;;5016625;28;20022;-68
2022/03/11 09:46:46;;;;;;;10.15;7.07;;;11.30;29.80;;;;;;5022047;28;20022;-64
2022/03/11 09:49:14;;;;;;;12.02;8.68;;;11.60;32.00;;;;;;5017898;28;20108;-72
2022/03/11 09:51:41;;;;;;;10.27;7.38;;;12.00;30.80;;;;;;5016819;28;20018;-71
2022/03/11 09:54:12;;;;;;;10.20;7.45;;;12.00;29.70;;;;;;5013260;28;20517;-71
2022/03/11 09:56:40;;;;;;;9.82;7.05;;;11.70;31.60;;;;;;5004786;28;20472;-69
2022/03/11 09:59:08;;;;;;;9.50;6.53;;;11.60;30.10;;;;;;5009144;28;20037;-69
2022/03/11 10:01:34;;;;;;;6.22;5.32;;;11.30;31.30;;;;;;5007048;28;20465;-68
2022/03/11 10:04:03;;;;;;;5.72;4.95;;;10.90;31.30;;;;;;5010512;28;20073;-70
2022/03/11 10:06:45;;;;;;;6.15;4.50;;;10.90;30.90;;;;;;5010143;28;20506;-70
2022/03/11 10:09:18;;;;;;;6.20;5.10;;;10.50;30.50;;;;;;5010226;28;20026;-69
2022/03/11 10:11:46;;;;;;;6.03;4.77;;;10.40;31.10;;;;;;5011625;28;20046;-69
2022/03/11 10:14:13;;;;;;;5.82;4.07;;;10.10;30.20;;;;;;5017109;28;20013;-69
2022/03/11 10:16:41;;;;;;;4.90;4.40;;;9.80;31.00;;;;;;5015231;28;20021;-69
2022/03/11 10:19:09;;;;;;;6.43;4.38;;;9.60;30.90;;;;;;5017551;28;20048;-69
2022/03/11 10:21:36;;;;;;;5.47;3.78;;;10.00;29.90;;;;;;5019868;28;20484;-69
2022/03/11 10:24:05;;;;;;;5.60;4.95;;;10.50;30.50;;;;;;5020117;28;20084;-69
2022/03/11 10:26:43;;;;;;;12.40;7.22;;;10.60;31.20;;;;;;5031738;28;20056;-69
2022/03/11 10:29:13;;;;;;;11.90;8.77;;;10.80;29.40;;;;;;5018258;28;20029;-69
2022/03/11 10:31:42;;;;;;;10.02;6.88;;;10.90;29.10;;;;;;5012102;28;20022;-69
2022/03/11 10:34:24;;;;;;;11.00;7.40;;;10.80;29.70;;;;;;5011233;28;20113;-69
2022/03/11 10:37:00;;;;;;;6.57;5.30;;;11.10;28.80;;;;;;5005598;28;20098;-68
2022/03/11 10:39:31;;;;;;;6.93;5.30;;;11.60;29.10;;;;;;5009440;28;20619;-66
2022/03/11 10:42:00;;;;;;;8.10;6.03;;;12.00;29.10;;;;;;5010171;28;20030;-66
2022/03/11 10:44:28;;;;;;;7.97;5.75;;;12.40;29.10;;;;;;5007085;28;20029;-65
2022/03/11 10:47:18;;;;;;;6.07;4.53;;;12.30;31.30;;;;;;5018907;28;20026;-64
2022/03/11 10:49:48;;;;;;;4.60;4.07;;;12.00;29.30;;;;;;5015615;28;20037;-64
2022/03/11 10:52:14;;;;;;;5.20;4.30;;;12.10;29.30;;;;;;5009210;28;20026;-65
2022/03/11 10:54:43;;;;;;;5.38;4.32;;;12.40;31.60;;;;;;5010052;28;20033;-64
2022/03/11 10:57:10;;;;;;;4.55;3.80;;;12.80;28.70;;;;;;5009723;28;20079;-64
2022/03/11 10:59:36;;;;;;;5.32;3.92;;;13.00;29.80;;;;;;5010050;28;20034;-62
2022/03/11 11:02:03;;;;;;;4.47;3.70;;;13.20;29.10;;;;;;5012222;28;20076;-62
2022/03/11 11:04:29;;;;;;;3.90;3.50;;;13.10;29.80;;;;;;5011282;28;20030;-63
2022/03/11 11:06:56;;;;;;;3.88;3.55;;;13.30;29.20;;;;;;5011167;28;20025;-65
2022/03/11 11:09:23;;;;;;;4.70;3.67;;;13.50;29.70;;;;;;5010056;28;20022;-63
2022/03/11 11:11:50;;;;;;;4.60;3.80;;;13.10;28.00;;;;;;5010414;28;20052;-63
2022/03/11 11:14:16;;;;;;;3.35;3.05;;;12.60;27.60;;;;;;5011427;28;20070;-63
2022/03/11 11:16:44;;;;;;;4.32;3.72;;;13.00;29.70;;;;;;5012078;28;20049;-63
2022/03/11 11:19:15;;;;;;;5.28;3.60;;;13.30;29.20;;;;;;5011499;28;20041;-63
2022/03/11 11:21:46;;;;;;;5.20;4.00;;;13.50;29.40;;;;;;5018031;28;20058;-63
2022/03/11 11:24:15;;;;;;;4.93;4.00;;;13.60;27.10;;;;;;5019463;28;20519;-63
2022/03/11 11:26:45;;;;;;;4.45;3.80;;;12.90;27.80;;;;;;5013893;28;20033;-63
2022/03/11 11:29:11;;;;;;;5.93;4.40;;;12.80;31.50;;;;;;5008422;28;20030;-61
2022/03/11 11:31:41;;;;;;;5.13;4.32;;;12.60;29.10;;;;;;5008905;28;20025;-63
2022/03/11 11:34:23;;;;;;;4.22;3.65;;;12.40;30.20;;;;;;5012530;28;20120;-63
2022/03/11 11:36:48;;;;;;;4.25;3.80;;;12.90;29.80;;;;;;5011084;28;20334;-60
2022/03/11 11:39:14;;;;;;;4.93;4.15;;;13.00;27.30;;;;;;5009333;28;20032;-61
2022/03/11 11:41:40;;;;;;;9.77;6.85;;;13.20;29.20;;;;;;5010518;28;20018;-60
2022/03/11 11:44:08;;;;;;;11.90;8.27;;;13.30;28.80;;;;;;5010063;28;20469;-62
2022/03/11 11:46:37;;;;;;;7.72;5.53;;;13.10;29.30;;;;;;5009357;28;20032;-61
2022/03/11 11:49:08;;;;;;;7.32;4.20;;;13.20;30.10;;;;;;5009122;28;20034;-60
2022/03/11 11:51:36;;;;;;;4.68;3.80;;;13.50;32.10;;;;;;5009720;28;20449;-59
2022/03/11 11:54:47;;;;;;;5.50;3.92;;;14.00;30.40;;;;;;5009930;28;20100;-60
2022/03/11 11:57:02;;;;;;;4.25;3.45;;;13.20;29.00;;;;;;5010779;28;20030;-62
2022/03/11 11:59:29;;;;;;;3.42;3.13;;;12.80;30.90;;;;;;5009909;28;20539;-62
2022/03/11 12:01:59;;;;;;;4.25;3.75;;;13.00;29.60;;;;;;5015648;28;20021;-61
2022/03/11 12:04:27;;;;;;;4.40;3.53;;;13.20;31.60;;;;;;5018927;28;20383;-61
2022/03/11 12:07:17;;;;;;;6.32;4.97;;;13.70;29.70;;;;;;5023658;28;20427;-64
2022/03/11 12:09:42;;;;;;;7.72;5.65;;;13.60;28.80;;;;;;5019642;28;20030;-62
2022/03/11 12:12:32;;;;;;;9.13;6.40;;;13.30;29.30;;;;;;5018361;28;20447;-62
2022/03/11 12:15:01;;;;;;;7.00;4.47;;;13.30;29.20;;;;;;5017115;28;20038;-62
2022/03/11 12:17:43;;;;;;;5.13;3.97;;;13.10;33.00;;;;;;5017797;28;20041;-62
2022/03/11 12:20:36;;;;;;;4.30;3.72;;;13.70;29.10;;;;;;5006134;28;20025;-63
2022/03/11 12:23:05;;;;;;;15.90;8.87;;;13.80;30.00;;;;;;5009706;28;20070;-61
2022/03/11 12:25:54;;;;;;;9.70;6.22;;;13.90;31.00;;;;;;5009653;28;20040;-62
2022/03/11 12:28:35;;;;;;;7.43;5.45;;;13.70;29.40;;;;;;5007801;28;20022;-61
2022/03/11 12:31:05;;;;;;;10.80;7.07;;;13.80;29.90;;;;;;5009435;28;20029;-63
2022/03/11 12:33:41;;;;;;;9.18;5.63;;;14.10;29.80;;;;;;5010106;28;20105;-61